Terminal Aerodrome Forecast
Issued by NWS Cleveland, OH

Home | Current Version | Previous Version | Text Only | Print | Product List | Glossary Off
Versions: 1 2 3 4 5 6 7 8 9 10 11 12 13 14 15 16 17 18 19 20 21 22 23 24 25

000
FTUS41 KCLE 261400 AAB
TAFCLE
TAF AMD
KCLE 261459Z 2615/2718 03012KT 1 1/2SM -SN OVC015
     FM261700 01010KT 3SM -SN OVC025
      TEMPO 2617/2619 1 1/2SM -SN OVC015
     FM262100 36010KT 6SM -SN OVC025
     FM270100 33005KT P6SM OVC035=

USA.gov is the U.S. government's official web portal to all federal, state and local government web resources and services.